Time;durP1;ratioP1;P1;durP2;ratioP2;P2;SDS_P1;SDS_P2;PMS_P1;PMS_P2;Temp;Humidity;BMP_temperature;BMP_pressure;BME280_temperature;BME280_humidity;BME280_pressure;Samples;Min_cycle;Max_cycle;Signal;HPM_P1;HPM_P2
2022/09/11 00:01:45;;;;;;;5.43;2.72;;;14.40;99.90;;;;;;5021797;28;20207;-71
2022/09/11 00:04:11;;;;;;;8.57;3.88;;;14.40;99.90;;;;;;4994794;28;20435;-71
2022/09/11 00:06:38;;;;;;;6.70;3.53;;;14.40;99.90;;;;;;5012805;28;20045;-71
2022/09/11 00:09:06;;;;;;;5.60;3.15;;;14.40;99.90;;;;;;5027033;28;20041;-71
2022/09/11 00:11:39;;;;;;;7.72;3.30;;;14.40;99.90;;;;;;5009626;28;20102;-71
2022/09/11 00:14:05;;;;;;;7.68;3.50;;;14.40;99.90;;;;;;5042739;28;20116;-71
2022/09/11 00:16:34;;;;;;;5.88;3.08;;;14.40;99.90;;;;;;5025007;28;20578;-71
2022/09/11 00:19:03;;;;;;;7.18;3.05;;;14.40;99.90;;;;;;5025135;28;20040;-71
2022/09/11 00:21:29;;;;;;;5.38;2.63;;;14.40;99.90;;;;;;5012250;28;20094;-71
2022/09/11 00:23:55;;;;;;;5.65;2.88;;;14.40;99.90;;;;;;5026666;28;20040;-71
2022/09/11 00:26:21;;;;;;;6.40;2.83;;;14.40;99.90;;;;;;5028063;28;20043;-71
2022/09/11 00:28:49;;;;;;;6.32;2.67;;;14.50;99.90;;;;;;5025111;28;20033;-70
2022/09/11 00:31:18;;;;;;;8.40;3.25;;;14.40;99.90;;;;;;5029576;28;20514;-71
2022/09/11 00:33:44;;;;;;;6.68;2.95;;;14.50;99.90;;;;;;5020912;28;20053;-71
2022/09/11 00:36:15;;;;;;;5.53;2.63;;;14.40;99.90;;;;;;5041962;28;20033;-71
2022/09/11 00:38:41;;;;;;;5.60;2.55;;;14.40;99.90;;;;;;5028365;28;20037;-71
2022/09/11 00:41:29;;;;;;;4.60;2.63;;;14.40;99.90;;;;;;5010122;28;20033;-71
2022/09/11 00:44:15;;;;;;;5.75;2.47;;;14.40;99.90;;;;;;5023866;28;20431;-70
2022/09/11 00:46:42;;;;;;;6.43;2.90;;;14.40;99.90;;;;;;5004555;28;20072;-71
2022/09/11 00:49:17;;;;;;;5.95;3.05;;;14.30;99.90;;;;;;5024421;28;20105;-71
2022/09/11 00:51:46;;;;;;;5.37;2.63;;;14.30;99.90;;;;;;5025954;28;20083;-71
2022/09/11 00:54:19;;;;;;;6.45;3.70;;;14.30;99.90;;;;;;5026637;28;20303;-71
2022/09/11 00:56:46;;;;;;;5.47;2.83;;;14.30;99.90;;;;;;5026472;28;20068;-71
2022/09/11 00:59:12;;;;;;;5.10;2.45;;;14.20;99.90;;;;;;5024706;28;20445;-71
2022/09/11 01:01:38;;;;;;;4.63;2.35;;;14.30;99.90;;;;;;5010695;28;20048;-71
2022/09/11 01:04:05;;;;;;;5.30;2.65;;;14.20;99.90;;;;;;5026595;28;20033;-71
2022/09/11 01:06:32;;;;;;;5.97;2.88;;;14.20;99.90;;;;;;5022937;28;20513;-71
2022/09/11 01:09:00;;;;;;;5.95;2.85;;;14.20;99.90;;;;;;5026076;28;20654;-70
2022/09/11 01:11:40;;;;;;;7.43;3.60;;;14.20;99.90;;;;;;5025405;28;20111;-71
2022/09/11 01:14:29;;;;;;;4.65;2.60;;;14.20;99.90;;;;;;5020767;28;20094;-71
2022/09/11 01:17:07;;;;;;;6.20;2.78;;;14.20;99.90;;;;;;5025930;28;20040;-71
2022/09/11 01:20:05;;;;;;;5.68;2.97;;;14.20;99.90;;;;;;5017435;28;20222;-71
2022/09/11 01:22:49;;;;;;;4.28;2.50;;;14.10;99.90;;;;;;5005963;28;20171;-70
2022/09/11 01:25:57;;;;;;;6.40;3.05;;;14.10;99.90;;;;;;5008880;28;20036;-71
2022/09/11 01:28:32;;;;;;;6.22;2.95;;;14.10;99.90;;;;;;5039719;28;20052;-71
2022/09/11 01:31:05;;;;;;;5.40;2.97;;;14.10;99.90;;;;;;5023864;28;20521;-71
2022/09/11 01:33:43;;;;;;;4.13;2.22;;;14.10;99.90;;;;;;5025163;28;20364;-71
2022/09/11 01:36:37;;;;;;;4.88;2.60;;;14.00;99.90;;;;;;5017716;28;20057;-70
2022/09/11 01:39:04;;;;;;;4.32;2.22;;;14.00;99.90;;;;;;5009250;28;20033;-71
2022/09/11 01:41:53;;;;;;;5.10;2.83;;;14.00;99.90;;;;;;5026953;28;20039;-71
2022/09/11 01:44:26;;;;;;;5.72;2.78;;;14.00;99.90;;;;;;5044390;28;20139;-71
2022/09/11 01:46:53;;;;;;;5.35;2.95;;;13.90;99.90;;;;;;5031165;28;20128;-71
2022/09/11 01:49:31;;;;;;;6.47;3.30;;;13.90;99.90;;;;;;5027620;28;20119;-71
2022/09/11 01:52:02;;;;;;;4.75;2.67;;;13.90;99.90;;;;;;5026546;28;20151;-71
2022/09/11 01:54:41;;;;;;;5.53;2.70;;;13.90;99.90;;;;;;5027258;28;20514;-71
2022/09/11 01:57:23;;;;;;;4.38;2.28;;;13.90;99.90;;;;;;5030963;28;20043;-71
2022/09/11 01:59:57;;;;;;;5.55;1.98;;;13.90;99.90;;;;;;4989115;28;20067;-70
2022/09/11 02:02:35;;;;;;;5.28;2.70;;;13.90;99.90;;;;;;5021427;28;20052;-71
2022/09/11 02:05:12;;;;;;;5.45;2.75;;;13.80;99.90;;;;;;5044768;28;20057;-71
2022/09/11 02:07:45;;;;;;;6.50;3.10;;;13.80;99.90;;;;;;5029567;28;20048;-70
2022/09/11 02:10:19;;;;;;;6.45;3.00;;;13.70;99.90;;;;;;5046592;28;20045;-71
2022/09/11 02:12:53;;;;;;;5.38;3.00;;;13.70;99.90;;;;;;5025546;28;20037;-71
2022/09/11 02:15:22;;;;;;;8.23;3.65;;;13.70;99.90;;;;;;5045668;28;20049;-70
2022/09/11 02:17:58;;;;;;;7.00;3.08;;;13.70;99.90;;;;;;5043640;28;20104;-70
2022/09/11 02:20:24;;;;;;;6.13;3.08;;;13.70;99.90;;;;;;5025087;28;20102;-71
2022/09/11 02:22:50;;;;;;;5.72;2.63;;;13.70;99.90;;;;;;5021820;28;20055;-71
2022/09/11 02:25:16;;;;;;;9.18;4.20;;;13.70;99.90;;;;;;5044992;28;20045;-70
2022/09/11 02:27:41;;;;;;;7.28;3.95;;;13.70;99.90;;;;;;5046331;28;20064;-71
2022/09/11 02:30:08;;;;;;;5.97;3.08;;;13.70;99.90;;;;;;5026388;28;20132;-71
2022/09/11 02:32:37;;;;;;;8.23;4.18;;;13.70;99.90;;;;;;5042650;28;20097;-71
2022/09/11 02:35:03;;;;;;;8.20;3.70;;;13.80;99.90;;;;;;5026974;28;20900;-71
2022/09/11 02:37:46;;;;;;;7.85;3.72;;;13.80;99.90;;;;;;5025846;28;20033;-70
2022/09/11 02:40:45;;;;;;;8.43;4.10;;;13.80;99.90;;;;;;5045630;28;20033;-71
2022/09/11 02:43:38;;;;;;;5.82;2.88;;;13.80;99.90;;;;;;5021940;28;20045;-71
2022/09/11 02:46:37;;;;;;;7.35;3.42;;;13.80;99.90;;;;;;5025588;28;20474;-70
2022/09/11 02:49:20;;;;;;;6.63;3.55;;;13.80;99.90;;;;;;5026023;28;20088;-70
2022/09/11 02:51:50;;;;;;;5.45;3.20;;;13.80;99.90;;;;;;5037248;28;20124;-70
2022/09/11 02:54:49;;;;;;;5.95;2.90;;;13.80;99.90;;;;;;5027962;28;20231;-70
2022/09/11 02:57:29;;;;;;;7.10;3.70;;;13.80;99.90;;;;;;5039651;28;20029;-70
2022/09/11 03:00:01;;;;;;;6.68;3.03;;;13.80;99.90;;;;;;5030813;28;20037;-71
2022/09/11 03:02:28;;;;;;;7.18;3.67;;;13.70;99.90;;;;;;5022853;28;20044;-70
2022/09/11 03:04:55;;;;;;;8.15;3.55;;;13.80;99.90;;;;;;5044443;28;20110;-70
2022/09/11 03:07:23;;;;;;;6.22;2.90;;;13.80;99.90;;;;;;5029079;28;20048;-71
2022/09/11 03:09:48;;;;;;;3.85;2.35;;;13.80;99.90;;;;;;5026285;28;20522;-70
2022/09/11 03:12:14;;;;;;;4.13;2.08;;;13.80;99.90;;;;;;5026937;28;20049;-70
2022/09/11 03:14:39;;;;;;;3.80;1.80;;;13.70;99.90;;;;;;5027121;28;20120;-71
2022/09/11 03:17:05;;;;;;;3.83;2.58;;;13.70;99.90;;;;;;5026770;28;20044;-70
2022/09/11 03:19:30;;;;;;;4.72;2.40;;;13.70;99.90;;;;;;5026732;28;20038;-70
2022/09/11 03:21:56;;;;;;;4.53;2.58;;;13.70;99.90;;;;;;5014763;28;20376;-71
2022/09/11 03:24:22;;;;;;;4.85;2.63;;;13.60;99.90;;;;;;5011380;28;20033;-71
2022/09/11 03:26:47;;;;;;;5.07;2.75;;;13.60;99.90;;;;;;5026311;28;20492;-71
2022/09/11 03:29:13;;;;;;;4.47;2.63;;;13.60;99.90;;;;;;5025232;28;20423;-71
2022/09/11 03:31:39;;;;;;;4.65;2.40;;;13.50;99.90;;;;;;5043946;28;20037;-71
2022/09/11 03:34:05;;;;;;;5.50;2.70;;;13.50;99.90;;;;;;5027622;28;20494;-70
2022/09/11 03:36:33;;;;;;;6.78;2.88;;;13.50;99.90;;;;;;5026966;28;20037;-71
2022/09/11 03:38:59;;;;;;;5.68;2.35;;;13.50;99.90;;;;;;5044160;28;20120;-70
2022/09/11 03:41:25;;;;;;;5.13;2.50;;;13.50;99.90;;;;;;5028796;28;20082;-71
2022/09/11 03:43:51;;;;;;;4.75;2.25;;;13.50;99.90;;;;;;5028980;28;20068;-70
2022/09/11 03:46:16;;;;;;;5.40;2.92;;;13.60;99.90;;;;;;5023319;28;20056;-70
2022/09/11 03:48:45;;;;;;;4.70;2.47;;;13.50;99.90;;;;;;5008914;28;20041;-70
2022/09/11 03:51:13;;;;;;;4.30;2.47;;;13.50;99.90;;;;;;5042108;28;20099;-70
2022/09/11 03:53:40;;;;;;;4.32;2.33;;;13.50;99.90;;;;;;5045166;28;20032;-70
2022/09/11 03:56:05;;;;;;;4.20;2.25;;;13.60;99.90;;;;;;5027082;28;20570;-71
2022/09/11 03:58:31;;;;;;;4.60;2.67;;;13.50;99.90;;;;;;5009571;28;20115;-71
2022/09/11 04:00:57;;;;;;;4.65;2.55;;;13.50;99.90;;;;;;5043275;28;20067;-71
2022/09/11 04:03:22;;;;;;;5.15;2.55;;;13.50;99.90;;;;;;5025471;28;20392;-71
2022/09/11 04:05:59;;;;;;;3.65;2.08;;;13.50;99.90;;;;;;5044914;28;20362;-71
2022/09/11 04:08:26;;;;;;;4.78;2.25;;;13.50;99.90;;;;;;5028034;28;20056;-70
2022/09/11 04:10:56;;;;;;;6.03;2.95;;;13.50;99.90;;;;;;5027262;28;20443;-70
2022/09/11 04:13:26;;;;;;;4.90;2.40;;;13.50;99.90;;;;;;5031949;28;20037;-70
2022/09/11 04:15:52;;;;;;;4.65;2.55;;;13.40;99.90;;;;;;5047305;28;20437;-71
2022/09/11 04:18:18;;;;;;;4.45;2.08;;;13.40;99.90;;;;;;5023037;28;20821;-70
2022/09/11 04:20:43;;;;;;;4.55;2.35;;;13.50;99.90;;;;;;5043500;28;20041;-71
2022/09/11 04:23:09;;;;;;;5.13;2.60;;;13.50;99.90;;;;;;5009035;28;20040;-70
2022/09/11 04:25:34;;;;;;;5.82;2.65;;;13.40;99.90;;;;;;5031606;28;20033;-71
2022/09/11 04:28:00;;;;;;;5.38;2.63;;;13.40;99.90;;;;;;5010819;28;20049;-70
2022/09/11 04:30:26;;;;;;;5.10;2.90;;;13.40;99.90;;;;;;5043315;28;20033;-71
2022/09/11 04:32:51;;;;;;;4.50;2.50;;;13.30;99.90;;;;;;5028379;28;20049;-71
2022/09/11 04:35:17;;;;;;;4.82;2.65;;;13.40;99.90;;;;;;5043852;28;20389;-70
2022/09/11 04:37:43;;;;;;;5.20;2.70;;;13.30;99.90;;;;;;5033170;28;20654;-71
2022/09/11 04:40:10;;;;;;;3.75;2.30;;;13.30;99.90;;;;;;5026960;28;20045;-71
2022/09/11 04:42:36;;;;;;;5.28;2.60;;;13.30;99.90;;;;;;5027242;28;20406;-71
2022/09/11 04:45:02;;;;;;;4.00;2.28;;;13.30;99.90;;;;;;5025030;28;20052;-71
2022/09/11 04:47:27;;;;;;;4.50;2.08;;;13.30;99.90;;;;;;5046963;28;20040;-71
2022/09/11 04:49:53;;;;;;;4.38;2.28;;;13.20;99.90;;;;;;5009946;28;20040;-71
2022/09/11 04:52:19;;;;;;;4.25;2.58;;;13.20;99.90;;;;;;5032568;28;20040;-70
2022/09/11 04:54:45;;;;;;;4.32;2.45;;;13.20;99.90;;;;;;5027211;28;20445;-71
2022/09/11 04:57:11;;;;;;;4.57;2.53;;;13.20;99.90;;;;;;5026500;28;20033;-71
2022/09/11 04:59:37;;;;;;;4.10;2.25;;;13.20;99.90;;;;;;5042448;28;20044;-70
2022/09/11 05:02:03;;;;;;;4.10;2.05;;;13.20;99.90;;;;;;5034308;28;20479;-71
2022/09/11 05:04:29;;;;;;;3.85;2.17;;;13.20;99.90;;;;;;5022831;28;20176;-71
2022/09/11 05:06:54;;;;;;;4.90;2.58;;;13.30;99.90;;;;;;5011432;28;20095;-71
2022/09/11 05:09:20;;;;;;;4.13;1.95;;;13.30;99.90;;;;;;4988795;28;20037;-71
2022/09/11 05:11:46;;;;;;;5.50;2.83;;;13.30;99.90;;;;;;5028631;28;20095;-71
2022/09/11 05:14:11;;;;;;;3.47;2.05;;;13.30;99.90;;;;;;5005328;28;20056;-71
2022/09/11 05:16:37;;;;;;;4.22;2.30;;;13.30;99.90;;;;;;4990109;28;20037;-71
2022/09/11 05:19:03;;;;;;;5.10;2.58;;;13.30;99.90;;;;;;5018353;28;20030;-71
2022/09/11 05:21:30;;;;;;;4.38;2.10;;;13.40;99.90;;;;;;5012855;28;20033;-71
2022/09/11 05:23:57;;;;;;;4.13;2.38;;;13.30;99.90;;;;;;5011165;28;20188;-70
2022/09/11 05:26:29;;;;;;;4.07;2.08;;;13.40;99.90;;;;;;5026458;28;20052;-70
2022/09/11 05:29:03;;;;;;;4.13;2.15;;;13.30;99.90;;;;;;5008427;28;20053;-70
2022/09/11 05:31:30;;;;;;;3.13;1.90;;;13.40;99.90;;;;;;5010899;28;20072;-70
2022/09/11 05:33:59;;;;;;;3.35;1.77;;;13.40;99.90;;;;;;5021996;28;20045;-70
2022/09/11 05:36:25;;;;;;;3.63;2.03;;;13.40;99.90;;;;;;5005003;28;20045;-70
2022/09/11 05:38:52;;;;;;;3.42;1.90;;;13.40;99.90;;;;;;5023278;28;20087;-70
2022/09/11 05:41:18;;;;;;;4.05;2.25;;;13.40;99.90;;;;;;5008525;28;20053;-70
2022/09/11 05:43:43;;;;;;;3.95;2.20;;;13.40;99.90;;;;;;5021418;28;20556;-70
2022/09/11 05:46:15;;;;;;;4.30;2.58;;;13.40;99.90;;;;;;5005842;28;20034;-70
2022/09/11 05:48:42;;;;;;;4.65;2.60;;;13.40;99.90;;;;;;4993274;28;20409;-70
2022/09/11 05:51:17;;;;;;;4.22;2.25;;;13.40;99.90;;;;;;5007883;28;20696;-71
2022/09/11 05:53:44;;;;;;;4.07;2.22;;;13.40;99.90;;;;;;5023783;28;20109;-70
2022/09/11 05:56:16;;;;;;;4.07;2.17;;;13.40;99.90;;;;;;5004424;28;20133;-70
2022/09/11 05:58:45;;;;;;;3.97;2.17;;;13.50;99.90;;;;;;5008410;28;20076;-70
2022/09/11 06:01:16;;;;;;;3.90;2.20;;;13.50;99.90;;;;;;4992586;28;20064;-70
2022/09/11 06:03:42;;;;;;;4.35;2.47;;;13.50;99.90;;;;;;4993200;28;20113;-71
2022/09/11 06:06:10;;;;;;;3.70;2.50;;;13.50;99.90;;;;;;5020548;28;20396;-70
2022/09/11 06:08:37;;;;;;;4.22;2.40;;;13.50;99.90;;;;;;5023452;28;20063;-70
2022/09/11 06:11:08;;;;;;;5.20;2.90;;;13.60;99.90;;;;;;5027717;28;20072;-70
2022/09/11 06:13:40;;;;;;;5.68;2.67;;;13.60;99.90;;;;;;5026882;28;20089;-71
2022/09/11 06:16:10;;;;;;;5.35;2.70;;;13.60;99.90;;;;;;5028989;28;20100;-70
2022/09/11 06:18:36;;;;;;;4.15;2.70;;;13.60;99.90;;;;;;5045960;28;20486;-70
2022/09/11 06:21:07;;;;;;;4.80;2.80;;;13.60;99.90;;;;;;5027598;28;20049;-71
2022/09/11 06:23:34;;;;;;;4.95;2.67;;;13.70;99.90;;;;;;5033436;28;20041;-70
2022/09/11 06:26:07;;;;;;;5.45;3.20;;;13.70;99.90;;;;;;5032827;28;20079;-71
2022/09/11 06:28:35;;;;;;;5.72;3.17;;;13.80;99.90;;;;;;5032261;28;20056;-71
2022/09/11 06:31:01;;;;;;;5.00;2.80;;;13.80;99.90;;;;;;5014769;28;20486;-70
2022/09/11 06:33:35;;;;;;;5.45;3.53;;;13.80;99.90;;;;;;5015609;28;20064;-71
2022/09/11 06:36:03;;;;;;;5.40;3.15;;;13.90;99.90;;;;;;5048442;28;20040;-70
2022/09/11 06:38:30;;;;;;;5.80;3.20;;;13.90;99.90;;;;;;5028418;28;20052;-71
2022/09/11 06:40:57;;;;;;;5.40;2.97;;;13.90;99.90;;;;;;5026976;28;20041;-71
2022/09/11 06:43:22;;;;;;;5.93;2.55;;;14.00;99.90;;;;;;5032029;28;20160;-69
2022/09/11 06:45:48;;;;;;;4.85;2.78;;;14.00;99.90;;;;;;5045243;28;20540;-70
2022/09/11 06:48:20;;;;;;;6.82;3.22;;;14.00;99.90;;;;;;5042929;28;20496;-70
2022/09/11 06:50:46;;;;;;;4.28;2.40;;;14.10;99.90;;;;;;5047360;28;20048;-70
2022/09/11 06:53:13;;;;;;;5.25;3.15;;;14.20;99.90;;;;;;5034025;28;20072;-70
2022/09/11 06:55:40;;;;;;;5.53;3.17;;;14.20;99.90;;;;;;5011314;28;20098;-71
2022/09/11 06:58:08;;;;;;;4.32;2.70;;;14.20;99.90;;;;;;5046385;28;20033;-71
2022/09/11 07:00:35;;;;;;;5.35;2.97;;;14.30;99.90;;;;;;5044760;28;20033;-71
2022/09/11 07:03:01;;;;;;;4.22;2.67;;;14.30;99.90;;;;;;5041075;28;20060;-70
2022/09/11 07:05:27;;;;;;;5.95;3.05;;;14.40;99.90;;;;;;5013667;28;20072;-71
2022/09/11 07:07:54;;;;;;;5.35;2.80;;;14.40;99.90;;;;;;5020291;28;20069;-71
2022/09/11 07:10:20;;;;;;;5.28;2.88;;;14.50;99.90;;;;;;5004559;28;20168;-71
2022/09/11 07:12:46;;;;;;;4.70;2.72;;;14.50;99.90;;;;;;4999247;28;20041;-71
2022/09/11 07:15:12;;;;;;;5.22;3.22;;;14.60;99.90;;;;;;5024692;28;20414;-71
2022/09/11 07:17:37;;;;;;;6.38;3.00;;;14.70;99.90;;;;;;5005716;28;20049;-70
2022/09/11 07:20:09;;;;;;;6.20;3.38;;;14.70;99.90;;;;;;5022670;28;20045;-71
2022/09/11 07:22:35;;;;;;;6.18;3.20;;;14.80;99.90;;;;;;5005794;28;20041;-70
2022/09/11 07:25:00;;;;;;;6.13;3.38;;;14.80;99.90;;;;;;5007022;28;20461;-71
2022/09/11 07:27:28;;;;;;;7.05;3.17;;;14.90;99.90;;;;;;4991995;28;20041;-71
2022/09/11 07:29:53;;;;;;;3.47;2.28;;;15.00;99.90;;;;;;5006809;28;20886;-71
2022/09/11 07:32:19;;;;;;;6.97;3.33;;;15.00;99.90;;;;;;5019673;28;20028;-71
2022/09/11 07:34:46;;;;;;;6.45;3.70;;;15.00;99.90;;;;;;5022933;28;20487;-71
2022/09/11 07:37:12;;;;;;;5.68;3.30;;;15.10;99.90;;;;;;5023466;28;20087;-71
2022/09/11 07:39:38;;;;;;;5.80;2.72;;;15.10;99.90;;;;;;5005073;28;20049;-71
2022/09/11 07:42:06;;;;;;;5.95;2.88;;;15.20;99.90;;;;;;5004638;28;20046;-70
2022/09/11 07:44:32;;;;;;;5.78;2.65;;;15.20;99.90;;;;;;5003785;28;20041;-71
2022/09/11 07:46:57;;;;;;;7.30;3.60;;;15.30;99.90;;;;;;5004614;28;20047;-71
2022/09/11 07:49:23;;;;;;;6.55;3.42;;;15.30;99.90;;;;;;5006337;28;20040;-74
2022/09/11 07:51:48;;;;;;;5.90;3.53;;;15.40;99.90;;;;;;5004294;28;20125;-73
2022/09/11 07:54:14;;;;;;;5.07;3.03;;;15.40;99.90;;;;;;4992840;28;20088;-71
2022/09/11 07:56:40;;;;;;;6.07;3.35;;;15.40;99.90;;;;;;5007554;28;20407;-71
2022/09/11 07:59:07;;;;;;;6.40;3.17;;;15.60;99.90;;;;;;5006810;28;20051;-71
2022/09/11 08:01:33;;;;;;;7.85;3.17;;;15.60;99.90;;;;;;5003598;28;20087;-70
2022/09/11 08:04:05;;;;;;;5.55;2.85;;;15.70;99.90;;;;;;5004354;28;20479;-71
2022/09/11 08:06:34;;;;;;;5.22;3.10;;;15.70;99.90;;;;;;5033310;28;20118;-71
2022/09/11 08:09:05;;;;;;;4.85;2.35;;;15.70;99.90;;;;;;5024171;28;20048;-71
2022/09/11 08:11:35;;;;;;;6.50;3.00;;;15.80;99.90;;;;;;5025856;28;20493;-71
2022/09/11 08:14:01;;;;;;;5.03;2.47;;;15.90;99.90;;;;;;5041678;28;20512;-71
2022/09/11 08:16:27;;;;;;;5.50;2.70;;;15.90;99.90;;;;;;5019458;28;20056;-71
2022/09/11 08:18:53;;;;;;;6.13;2.70;;;16.00;99.90;;;;;;5039426;28;20167;-71
2022/09/11 08:21:21;;;;;;;4.18;2.40;;;16.10;99.90;;;;;;5041708;28;20403;-70
2022/09/11 08:23:47;;;;;;;4.65;3.05;;;16.10;99.90;;;;;;5022354;28;20112;-71
2022/09/11 08:26:14;;;;;;;5.03;2.58;;;16.20;99.90;;;;;;5027020;28;20056;-71
2022/09/11 08:28:41;;;;;;;5.20;2.80;;;16.20;99.90;;;;;;5026779;28;20423;-71
2022/09/11 08:31:08;;;;;;;5.50;3.05;;;16.30;99.90;;;;;;5038904;28;20168;-71
2022/09/11 08:33:34;;;;;;;5.40;2.83;;;16.40;99.90;;;;;;5040749;28;20049;-70
2022/09/11 08:36:02;;;;;;;5.20;2.88;;;16.60;99.90;;;;;;5048154;28;20036;-70
2022/09/11 08:38:28;;;;;;;11.65;3.13;;;16.70;99.90;;;;;;5047481;28;20041;-71
2022/09/11 08:40:57;;;;;;;4.53;2.97;;;16.70;99.90;;;;;;5040584;28;20824;-71
2022/09/11 08:43:31;;;;;;;3.92;2.00;;;16.80;99.90;;;;;;5038136;28;20406;-71
2022/09/11 08:46:08;;;;;;;4.13;2.13;;;16.90;99.90;;;;;;5046705;28;20047;-70
2022/09/11 08:49:12;;;;;;;4.00;1.45;;;17.00;99.90;;;;;;5042695;28;20586;-70
2022/09/11 08:51:39;;;;;;;1.75;1.05;;;17.10;99.90;;;;;;5021457;28;20044;-71
2022/09/11 08:54:05;;;;;;;2.60;1.17;;;17.10;99.90;;;;;;5025026;28;20037;-71
2022/09/11 08:56:34;;;;;;;3.03;1.75;;;17.20;99.90;;;;;;5044609;28;20044;-71
2022/09/11 08:59:05;;;;;;;3.30;1.52;;;17.20;99.90;;;;;;5052052;28;20033;-70
2022/09/11 09:01:41;;;;;;;3.08;1.70;;;17.20;99.90;;;;;;5041799;28;20036;-70
2022/09/11 09:04:33;;;;;;;1.65;0.90;;;17.30;99.90;;;;;;5050731;28;20540;-70
2022/09/11 09:07:33;;;;;;;4.18;1.45;;;17.30;99.90;;;;;;5049492;28;20110;-70
2022/09/11 09:10:14;;;;;;;3.05;1.50;;;17.40;99.90;;;;;;5042505;28;20497;-70
2022/09/11 09:13:19;;;;;;;1.75;0.95;;;17.40;99.90;;;;;;5033402;28;20041;-70
2022/09/11 09:16:14;;;;;;;1.80;0.95;;;17.40;99.90;;;;;;5040012;28;20502;-70
2022/09/11 09:18:44;;;;;;;1.75;1.10;;;17.40;99.90;;;;;;5045602;28;20064;-70
2022/09/11 09:21:23;;;;;;;2.83;1.30;;;17.40;99.90;;;;;;5043685;28;20032;-70
2022/09/11 09:23:59;;;;;;;3.30;1.63;;;17.50;99.90;;;;;;5023105;28;20045;-70
2022/09/11 09:26:38;;;;;;;2.17;1.20;;;17.50;99.90;;;;;;5045674;28;20041;-70
2022/09/11 09:29:13;;;;;;;1.80;1.05;;;17.70;99.90;;;;;;5010807;28;20037;-70
2022/09/11 09:31:40;;;;;;;1.88;1.10;;;17.70;99.90;;;;;;5041966;28;20056;-70
2022/09/11 09:34:12;;;;;;;1.30;0.90;;;17.70;99.90;;;;;;5026080;28;20047;-70
2022/09/11 09:36:48;;;;;;;1.17;0.70;;;17.80;99.90;;;;;;5025305;28;20391;-70
2022/09/11 09:39:15;;;;;;;1.63;0.88;;;17.80;99.90;;;;;;5043081;28;20109;-70
2022/09/11 09:42:07;;;;;;;1.83;1.08;;;17.80;99.90;;;;;;5041565;28;20090;-70
2022/09/11 09:45:03;;;;;;;1.77;0.90;;;17.80;99.90;;;;;;5049267;28;20329;-70
2022/09/11 09:47:29;;;;;;;1.40;0.77;;;17.80;99.90;;;;;;5044934;28;20152;-70
2022/09/11 09:49:57;;;;;;;1.50;0.90;;;17.80;99.90;;;;;;5043401;28;20112;-71
2022/09/11 09:52:25;;;;;;;1.38;0.88;;;17.80;99.90;;;;;;5009536;28;20387;-71
2022/09/11 09:55:00;;;;;;;1.35;0.82;;;17.90;99.90;;;;;;5022683;28;20328;-71
2022/09/11 09:57:33;;;;;;;3.40;1.50;;;17.80;99.90;;;;;;5045103;28;20043;-71
2022/09/11 10:00:06;;;;;;;4.03;1.35;;;17.80;99.90;;;;;;5040426;28;20048;-71
2022/09/11 10:02:52;;;;;;;1.92;1.30;;;17.80;99.90;;;;;;5026652;28;20103;-71
2022/09/11 10:05:25;;;;;;;2.05;1.30;;;17.80;99.90;;;;;;5050068;28;20053;-71
2022/09/11 10:08:00;;;;;;;6.20;1.50;;;17.80;99.90;;;;;;5010748;28;20101;-71
2022/09/11 10:10:30;;;;;;;2.20;1.30;;;17.80;99.90;;;;;;5044400;28;20033;-71
2022/09/11 10:13:00;;;;;;;2.85;1.48;;;17.90;99.90;;;;;;5018964;28;20052;-70
2022/09/11 10:15:26;;;;;;;2.10;1.15;;;17.90;99.90;;;;;;5019781;28;20094;-70
2022/09/11 10:17:52;;;;;;;3.88;0.77;;;17.90;99.90;;;;;;5044862;28;20037;-70
2022/09/11 10:20:25;;;;;;;2.05;1.38;;;17.90;99.90;;;;;;5040151;28;20099;-70
2022/09/11 10:22:54;;;;;;;3.03;1.00;;;17.90;99.90;;;;;;5025997;28;20045;-70
2022/09/11 10:25:28;;;;;;;2.13;0.90;;;17.90;99.90;;;;;;5034908;28;20068;-70
2022/09/11 10:28:12;;;;;;;1.02;0.65;;;17.90;99.90;;;;;;5025603;28;20049;-70
2022/09/11 10:30:47;;;;;;;1.48;0.63;;;18.00;99.90;;;;;;5040652;28;20045;-70
2022/09/11 10:33:22;;;;;;;1.63;0.87;;;18.00;99.90;;;;;;5044710;28;20036;-70
2022/09/11 10:35:54;;;;;;;1.13;0.70;;;18.10;99.90;;;;;;5042164;28;20129;-71
2022/09/11 10:38:29;;;;;;;0.73;0.50;;;18.10;99.90;;;;;;5041620;28;20364;-70
2022/09/11 10:41:14;;;;;;;1.35;0.70;;;18.10;99.90;;;;;;5005148;28;20462;-70
2022/09/11 10:44:00;;;;;;;1.10;0.77;;;18.10;99.90;;;;;;5025340;28;20040;-71
2022/09/11 10:46:32;;;;;;;2.45;1.00;;;18.10;99.90;;;;;;5030118;28;20065;-71
2022/09/11 10:49:07;;;;;;;2.22;0.65;;;18.10;99.90;;;;;;5031084;28;20045;-71
2022/09/11 10:51:35;;;;;;;;;;;18.20;99.90;;;;;;5041091;28;20049;-70
2022/09/11 10:54:25;;;;;;;1.92;0.93;;;18.20;99.90;;;;;;5039403;28;19916;-70
2022/09/11 10:57:21;;;;;;;1.52;0.80;;;18.20;99.90;;;;;;5032045;28;20426;-70
2022/09/11 11:00:09;;;;;;;1.58;0.75;;;18.20;99.90;;;;;;5034705;28;20500;-70
2022/09/11 11:02:39;;;;;;;1.70;0.93;;;18.30;99.90;;;;;;5040866;28;20498;-70
2022/09/11 11:05:14;;;;;;;3.13;0.75;;;18.30;99.90;;;;;;5037825;28;20053;-70
2022/09/11 11:08:03;;;;;;;2.13;0.88;;;18.20;99.90;;;;;;5034860;28;20514;-70
2022/09/11 11:10:43;;;;;;;1.52;1.02;;;18.20;99.90;;;;;;5027303;28;20040;-70
2022/09/11 11:13:22;;;;;;;2.83;1.42;;;18.30;99.90;;;;;;5030033;28;20049;-70
2022/09/11 11:16:09;;;;;;;4.65;2.05;;;18.40;99.90;;;;;;5037133;28;20058;-70
2022/09/11 11:19:07;;;;;;;2.22;1.10;;;18.40;99.90;;;;;;5039317;28;20442;-70
2022/09/11 11:21:45;;;;;;;3.75;0.90;;;18.50;99.90;;;;;;5018351;28;20103;-70
2022/09/11 11:24:35;;;;;;;3.15;0.90;;;18.60;99.90;;;;;;5033369;28;20040;-70
2022/09/11 11:27:38;;;;;;;1.60;1.00;;;18.70;99.90;;;;;;5032480;28;20098;-70
2022/09/11 11:30:17;;;;;;;1.67;0.95;;;18.70;99.90;;;;;;5035867;28;20073;-70
2022/09/11 11:33:16;;;;;;;1.50;0.85;;;18.80;99.90;;;;;;5042268;28;20260;-70
2022/09/11 11:35:59;;;;;;;2.03;0.80;;;18.80;99.90;;;;;;5042411;28;20041;-70
2022/09/11 11:38:59;;;;;;;1.38;0.70;;;18.80;99.90;;;;;;5041497;28;20908;-70
2022/09/11 11:41:43;;;;;;;1.15;0.55;;;18.80;99.90;;;;;;5032189;28;20095;-70
2022/09/11 11:44:14;;;;;;;1.33;0.60;;;18.90;99.90;;;;;;5040888;28;20048;-70
2022/09/11 11:46:51;;;;;;;0.90;0.68;;;18.80;99.90;;;;;;5043365;28;20108;-70
2022/09/11 11:49:18;;;;;;;1.60;0.70;;;18.80;99.90;;;;;;5041321;28;20059;-75
2022/09/11 11:51:56;;;;;;;1.17;0.65;;;18.70;99.90;;;;;;5031354;28;20088;-72
2022/09/11 11:54:24;;;;;;;1.15;0.60;;;18.60;99.90;;;;;;5041225;28;20037;-70
2022/09/11 11:56:53;;;;;;;0.63;0.40;;;18.60;99.90;;;;;;5039984;28;20140;-70
2022/09/11 11:59:43;;;;;;;0.40;0.40;;;18.50;99.90;;;;;;5034167;28;20021;-70
2022/09/11 12:02:08;;;;;;;0.80;0.47;;;18.50;99.90;;;;;;5038376;28;20494;-70
2022/09/11 12:04:47;;;;;;;2.15;0.60;;;18.30;99.90;;;;;;5039565;28;20058;-70
2022/09/11 12:07:21;;;;;;;1.77;0.73;;;18.30;99.90;;;;;;5038603;28;20047;-70
2022/09/11 12:09:49;;;;;;;1.77;0.80;;;18.30;99.90;;;;;;5031958;28;20056;-70
2022/09/11 12:12:16;;;;;;;1.17;0.70;;;18.20;99.90;;;;;;5035667;28;20067;-71
2022/09/11 12:14:53;;;;;;;1.58;0.80;;;18.20;99.90;;;;;;5032203;28;20157;-70
2022/09/11 12:17:31;;;;;;;2.22;1.35;;;18.10;99.90;;;;;;5031115;28;20048;-70
2022/09/11 12:20:09;;;;;;;2.20;0.93;;;18.10;99.90;;;;;;5026665;28;20047;-70
2022/09/11 12:22:41;;;;;;;2.10;0.90;;;18.10;99.90;;;;;;5035858;28;20044;-70
2022/09/11 12:25:18;;;;;;;1.48;1.00;;;18.10;99.90;;;;;;5036392;28;20037;-70
2022/09/11 12:27:53;;;;;;;1.52;0.88;;;18.10;99.90;;;;;;5029593;28;20044;-71
2022/09/11 12:30:25;;;;;;;2.80;1.00;;;18.20;99.90;;;;;;5030871;28;20047;-70
2022/09/11 12:32:56;;;;;;;1.42;0.75;;;18.20;99.90;;;;;;5035391;28;20045;-70
2022/09/11 12:35:27;;;;;;;1.25;0.80;;;18.20;99.90;;;;;;5026001;28;20610;-71
2022/09/11 12:38:01;;;;;;;2.03;0.98;;;18.30;99.90;;;;;;5021088;28;20547;-71
2022/09/11 12:40:56;;;;;;;1.60;1.00;;;18.30;99.90;;;;;;5037067;28;20487;-71
2022/09/11 12:43:33;;;;;;;4.70;1.00;;;18.30;99.90;;;;;;4998253;28;20597;-71
2022/09/11 12:46:04;;;;;;;1.88;0.88;;;18.40;99.90;;;;;;5025723;28;20055;-71
2022/09/11 12:48:42;;;;;;;4.00;1.08;;;18.40;99.90;;;;;;5025877;28;20199;-71
2022/09/11 12:51:24;;;;;;;1.67;0.95;;;18.50;99.90;;;;;;5028181;28;20353;-71
2022/09/11 12:53:54;;;;;;;1.50;0.60;;;18.50;99.90;;;;;;5036694;28;20045;-70
2022/09/11 12:56:22;;;;;;;3.55;0.93;;;18.60;99.90;;;;;;5040058;28;20052;-71
2022/09/11 12:58:59;;;;;;;1.40;0.82;;;18.60;99.90;;;;;;5032825;28;20081;-71
2022/09/11 13:01:42;;;;;;;1.88;0.90;;;18.60;99.90;;;;;;5037643;28;20033;-71
2022/09/11 13:04:08;;;;;;;1.75;0.80;;;18.60;99.90;;;;;;5022674;28;20037;-70
2022/09/11 13:06:41;;;;;;;1.75;0.90;;;18.60;99.90;;;;;;5024507;28;20045;-70
2022/09/11 13:09:24;;;;;;;3.67;1.10;;;18.70;99.90;;;;;;5024330;28;20088;-70
2022/09/11 13:11:52;;;;;;;1.77;0.63;;;18.70;99.90;;;;;;5008596;28;20053;-70
2022/09/11 13:14:27;;;;;;;1.10;0.70;;;18.70;99.90;;;;;;5008717;28;20040;-69